Time;durP1;ratioP1;P1;durP2;ratioP2;P2;SDS_P1;SDS_P2;PMS_P1;PMS_P2;Temp;Humidity;BMP_temperature;BMP_pressure;BME280_temperature;BME280_humidity;BME280_pressure;Samples;Min_cycle;Max_cycle;Signal;HPM_P1;HPM_P2
2020/12/20 00:02:15;;;;;;;6.40;2.45;;;26.00;44.60;;;;;;6247642;23;20330;-47
2020/12/20 00:04:41;;;;;;;6.68;2.40;;;26.00;44.70;;;;;;6247639;23;20059;-46
2020/12/20 00:07:08;;;;;;;6.40;2.33;;;25.90;44.60;;;;;;6247633;23;20314;-47
2020/12/20 00:09:34;;;;;;;5.13;2.47;;;25.90;44.80;;;;;;6247434;23;20039;-47
2020/12/20 00:12:03;;;;;;;5.38;2.40;;;26.00;44.90;;;;;;6247393;23;20008;-47
2020/12/20 00:14:34;;;;;;;5.45;2.53;;;25.90;45.00;;;;;;6247564;23;20004;-47
2020/12/20 00:17:07;;;;;;;6.60;2.85;;;25.90;45.10;;;;;;6247710;23;20087;-47
2020/12/20 00:19:34;;;;;;;4.55;2.30;;;25.90;45.10;;;;;;6247163;23;20031;-47
2020/12/20 00:22:05;;;;;;;5.38;2.38;;;25.90;45.20;;;;;;6247499;23;20000;-47
2020/12/20 00:24:32;;;;;;;7.13;2.60;;;25.90;45.20;;;;;;6248150;23;20479;-47
2020/12/20 00:27:01;;;;;;;9.35;2.70;;;25.90;45.30;;;;;;6245844;23;20334;-47
2020/12/20 00:29:28;;;;;;;8.27;2.60;;;25.90;45.30;;;;;;6248075;23;20004;-47
2020/12/20 00:31:56;;;;;;;5.15;2.28;;;25.90;45.40;;;;;;6247325;23;20008;-47
2020/12/20 00:34:22;;;;;;;6.65;2.45;;;25.90;45.40;;;;;;6247229;23;20440;-47
2020/12/20 00:36:50;;;;;;;4.47;2.10;;;25.90;45.50;;;;;;6247357;23;20007;-47
2020/12/20 00:39:18;;;;;;;5.97;2.25;;;25.90;45.50;;;;;;6220420;23;20062;-47
2020/12/20 00:41:56;;;;;;;6.25;2.42;;;25.90;45.50;;;;;;6220532;23;20008;-47
2020/12/20 00:44:24;;;;;;;5.25;2.42;;;25.90;45.50;;;;;;6247658;23;20031;-47
2020/12/20 00:46:51;;;;;;;4.65;2.25;;;25.90;45.60;;;;;;6247220;23;20012;-47
2020/12/20 00:49:18;;;;;;;4.95;2.20;;;25.90;45.60;;;;;;6246735;23;20044;-47
2020/12/20 00:51:45;;;;;;;5.15;2.15;;;25.90;45.60;;;;;;6247210;23;20001;-47
2020/12/20 00:54:11;;;;;;;9.68;2.30;;;25.90;45.70;;;;;;6247246;23;20026;-47
2020/12/20 00:56:38;;;;;;;10.98;2.50;;;25.80;45.60;;;;;;6247193;23;20000;-47
2020/12/20 00:59:04;;;;;;;6.22;2.58;;;25.80;45.70;;;;;;6218931;23;20376;-47
2020/12/20 01:01:31;;;;;;;8.73;2.10;;;25.80;45.70;;;;;;6247206;23;20004;-47
2020/12/20 01:03:58;;;;;;;5.97;2.30;;;25.80;45.80;;;;;;6247201;23;20000;-47
2020/12/20 01:06:25;;;;;;;4.35;2.10;;;25.80;45.80;;;;;;6247199;23;20007;-47
2020/12/20 01:08:52;;;;;;;4.45;2.20;;;25.70;45.80;;;;;;6246243;23;20444;-47
2020/12/20 01:11:19;;;;;;;5.35;2.05;;;25.70;45.90;;;;;;6247040;23;20067;-47
2020/12/20 01:13:50;;;;;;;10.65;2.30;;;25.70;45.90;;;;;;6246665;23;20000;-46
2020/12/20 01:16:23;;;;;;;6.10;2.00;;;25.70;46.00;;;;;;6247084;23;20353;-47
2020/12/20 01:18:50;;;;;;;3.90;2.20;;;25.60;46.00;;;;;;6246909;23;20074;-47
2020/12/20 01:21:17;;;;;;;9.65;2.28;;;25.60;46.10;;;;;;6246592;23;20390;-47
2020/12/20 01:23:45;;;;;;;8.02;2.50;;;25.60;46.10;;;;;;6247177;23;20414;-47
2020/12/20 01:26:13;;;;;;;9.82;2.72;;;25.60;46.10;;;;;;6246821;23;20004;-47
2020/12/20 01:28:40;;;;;;;4.72;2.15;;;25.50;46.10;;;;;;6246456;23;20311;-47
2020/12/20 01:31:08;;;;;;;6.45;2.15;;;25.50;46.20;;;;;;6247328;23;20003;-47
2020/12/20 01:33:36;;;;;;;7.18;2.70;;;25.40;46.20;;;;;;6246865;23;20055;-47
2020/12/20 01:36:11;;;;;;;7.55;2.50;;;25.40;46.30;;;;;;6247069;23;20007;-47
2020/12/20 01:38:39;;;;;;;6.05;2.40;;;25.30;46.40;;;;;;6246926;23;20004;-47
2020/12/20 01:41:07;;;;;;;8.95;2.53;;;25.30;46.50;;;;;;6219744;23;20349;-47
2020/12/20 01:43:47;;;;;;;8.90;2.70;;;25.20;46.60;;;;;;6246634;23;20004;-47
2020/12/20 01:46:17;;;;;;;10.48;2.45;;;25.20;46.80;;;;;;6246333;23;20027;-48
2020/12/20 01:48:47;;;;;;;7.63;2.30;;;25.10;46.90;;;;;;6247378;23;20008;-47
2020/12/20 01:51:14;;;;;;;10.00;2.70;;;25.10;47.30;;;;;;6246802;23;20058;-47
2020/12/20 01:53:42;;;;;;;8.98;2.58;;;25.00;47.50;;;;;;6246811;23;20079;-46
2020/12/20 01:56:09;;;;;;;7.78;2.55;;;25.00;47.80;;;;;;6246764;23;20004;-47
2020/12/20 01:58:38;;;;;;;9.30;2.67;;;24.90;47.80;;;;;;6246645;23;20008;-47
2020/12/20 02:01:09;;;;;;;10.98;2.80;;;24.90;48.20;;;;;;6246706;23;20003;-47
2020/12/20 02:03:36;;;;;;;9.85;2.72;;;24.90;48.50;;;;;;6246663;23;20004;-47
2020/12/20 02:06:11;;;;;;;7.78;2.70;;;24.80;48.70;;;;;;6246745;23;20032;-47
2020/12/20 02:08:38;;;;;;;7.70;2.30;;;24.80;48.90;;;;;;6246624;23;20102;-47
2020/12/20 02:11:12;;;;;;;8.30;2.35;;;24.80;49.20;;;;;;6220228;23;20004;-47
2020/12/20 02:13:46;;;;;;;10.43;2.28;;;24.70;49.20;;;;;;6246453;23;20433;-47
2020/12/20 02:16:21;;;;;;;10.93;2.65;;;24.70;49.30;;;;;;6246916;23;20004;-47
2020/12/20 02:18:49;;;;;;;8.77;2.45;;;24.60;49.30;;;;;;6246600;23;20366;-47
2020/12/20 02:21:21;;;;;;;8.52;2.22;;;24.60;49.40;;;;;;6248401;23;20476;-47
2020/12/20 02:23:48;;;;;;;6.95;2.47;;;24.60;50.10;;;;;;6248149;23;20083;-47
2020/12/20 02:26:19;;;;;;;5.68;2.05;;;24.60;49.40;;;;;;6248416;23;20007;-47
2020/12/20 02:28:50;;;;;;;8.63;2.63;;;24.50;49.50;;;;;;6248619;23;20062;-47
2020/12/20 02:31:17;;;;;;;7.88;2.30;;;24.40;49.60;;;;;;6249030;23;20429;-47
2020/12/20 02:33:43;;;;;;;5.93;2.28;;;24.40;49.60;;;;;;6248605;23;20000;-47
2020/12/20 02:36:11;;;;;;;6.35;2.97;;;24.40;49.60;;;;;;6248507;23;20000;-47
2020/12/20 02:38:38;;;;;;;5.38;2.78;;;24.40;49.60;;;;;;6248614;23;20058;-47
2020/12/20 02:41:04;;;;;;;6.75;2.83;;;24.30;49.60;;;;;;6248151;23;20000;-46
2020/12/20 02:43:31;;;;;;;7.68;2.95;;;24.20;49.70;;;;;;6248224;23;19996;-47
2020/12/20 02:45:57;;;;;;;4.93;2.78;;;24.20;49.70;;;;;;6248632;23;20418;-47
2020/12/20 02:48:24;;;;;;;7.85;2.92;;;24.20;49.80;;;;;;6248258;23;20421;-47
2020/12/20 02:50:51;;;;;;;6.82;2.90;;;24.20;49.90;;;;;;6248029;23;20426;-47
2020/12/20 02:53:17;;;;;;;9.38;2.92;;;24.10;49.90;;;;;;6249122;23;20302;-47
2020/12/20 02:55:44;;;;;;;8.57;3.25;;;24.10;49.90;;;;;;6248181;23;20004;-47
2020/12/20 02:58:10;;;;;;;6.28;2.85;;;24.00;50.00;;;;;;6248383;23;20058;-47
2020/12/20 03:00:38;;;;;;;9.10;3.67;;;24.00;50.00;;;;;;6248276;23;20417;-47
2020/12/20 03:03:07;;;;;;;9.10;3.50;;;24.00;50.10;;;;;;6248329;23;20023;-47
2020/12/20 03:05:34;;;;;;;9.00;5.20;;;23.90;50.10;;;;;;6247740;23;20071;-47
2020/12/20 03:08:00;;;;;;;16.15;9.30;;;23.90;50.10;;;;;;6248173;23;20004;-47
2020/12/20 03:10:27;;;;;;;16.10;5.70;;;23.90;50.20;;;;;;6247875;23;20004;-47
2020/12/20 03:12:54;;;;;;;18.85;6.63;;;23.80;50.30;;;;;;6248189;23;20026;-46
2020/12/20 03:15:20;;;;;;;20.60;8.40;;;23.80;50.50;;;;;;6248160;23;20004;-46
2020/12/20 03:17:47;;;;;;;18.63;8.73;;;23.70;50.80;;;;;;6248093;23;20426;-47
2020/12/20 03:20:14;;;;;;;16.42;7.82;;;23.70;51.20;;;;;;6247658;23;20061;-46
2020/12/20 03:22:40;;;;;;;15.07;7.88;;;23.60;51.40;;;;;;6247961;23;20325;-46
2020/12/20 03:25:07;;;;;;;12.57;8.00;;;23.60;51.70;;;;;;6248099;23;20083;-47
2020/12/20 03:27:34;;;;;;;14.55;8.10;;;23.60;52.00;;;;;;6248011;23;20001;-47
2020/12/20 03:30:00;;;;;;;14.63;7.45;;;23.50;52.20;;;;;;6247793;23;20071;-46
2020/12/20 03:32:27;;;;;;;15.77;7.43;;;23.50;52.40;;;;;;6221206;23;20369;-46
2020/12/20 03:34:53;;;;;;;16.75;7.85;;;23.50;52.60;;;;;;6248065;23;20061;-47
2020/12/20 03:37:20;;;;;;;15.95;7.57;;;23.50;52.80;;;;;;6248006;23;20007;-47
2020/12/20 03:39:47;;;;;;;18.17;6.80;;;23.50;53.00;;;;;;6247969;23;20000;-47
2020/12/20 03:42:13;;;;;;;13.10;7.18;;;23.50;53.10;;;;;;6248128;23;20004;-46
2020/12/20 03:44:40;;;;;;;13.55;7.25;;;23.60;53.30;;;;;;6247849;23;20000;-46
2020/12/20 03:47:06;;;;;;;13.20;6.47;;;23.60;53.30;;;;;;6247840;23;20046;-46
2020/12/20 03:49:33;;;;;;;11.80;6.20;;;23.60;53.40;;;;;;6247781;23;20057;-46
2020/12/20 03:51:59;;;;;;;11.15;6.05;;;23.70;53.50;;;;;;6247652;23;20004;-47
2020/12/20 03:54:26;;;;;;;9.55;6.03;;;23.70;53.50;;;;;;6247418;23;20079;-47
2020/12/20 03:56:54;;;;;;;11.18;6.00;;;23.70;53.60;;;;;;6221906;23;20363;-47
2020/12/20 03:59:22;;;;;;;10.80;5.80;;;23.80;53.70;;;;;;6247732;23;20058;-47
2020/12/20 04:01:48;;;;;;;11.80;5.68;;;23.80;53.70;;;;;;6247625;23;20027;-47
2020/12/20 04:04:16;;;;;;;10.27;6.13;;;23.90;53.70;;;;;;6247194;23;20027;-47
2020/12/20 04:06:43;;;;;;;11.02;5.47;;;24.00;53.80;;;;;;6247763;23;19996;-47
2020/12/20 04:09:09;;;;;;;10.73;5.35;;;24.00;53.70;;;;;;6247585;23;20054;-47
2020/12/20 04:11:36;;;;;;;9.82;4.65;;;24.10;53.60;;;;;;6247187;23;20429;-47
2020/12/20 04:14:02;;;;;;;13.25;5.32;;;24.20;53.70;;;;;;6247652;23;20028;-47
2020/12/20 04:16:29;;;;;;;11.55;4.82;;;24.30;53.70;;;;;;6247563;23;20027;-47
2020/12/20 04:18:55;;;;;;;8.52;4.80;;;24.40;53.60;;;;;;6247252;23;20000;-47
2020/12/20 04:21:22;;;;;;;10.27;4.18;;;24.50;53.60;;;;;;6247523;23;20003;-47
2020/12/20 04:23:48;;;;;;;9.75;4.10;;;24.60;53.50;;;;;;6246909;23;20012;-47
2020/12/20 04:26:15;;;;;;;10.65;4.07;;;24.70;54.10;;;;;;6247206;23;20358;-47
2020/12/20 04:28:41;;;;;;;7.32;4.03;;;24.80;53.30;;;;;;6247412;23;20015;-47
2020/12/20 04:31:08;;;;;;;7.88;3.70;;;24.90;53.20;;;;;;6220522;23;20009;-47
2020/12/20 04:33:34;;;;;;;7.32;3.45;;;25.00;53.10;;;;;;6247127;23;20299;-47
2020/12/20 04:36:01;;;;;;;5.95;3.65;;;25.10;53.00;;;;;;6220420;23;20091;-47
2020/12/20 04:38:27;;;;;;;7.13;3.72;;;25.20;53.60;;;;;;6246881;23;20449;-47
2020/12/20 04:40:54;;;;;;;7.90;3.70;;;25.30;52.90;;;;;;6247450;23;20075;-47
2020/12/20 04:43:22;;;;;;;6.60;3.10;;;25.40;53.40;;;;;;6246920;23;20031;-47
2020/12/20 04:45:52;;;;;;;7.65;3.45;;;25.50;52.70;;;;;;6247301;23;20000;-47
2020/12/20 04:48:20;;;;;;;6.68;3.20;;;25.60;52.50;;;;;;6247279;23;20004;-47
2020/12/20 04:50:48;;;;;;;5.82;3.00;;;25.70;52.40;;;;;;6246600;23;20011;-47
2020/12/20 04:53:14;;;;;;;5.97;2.63;;;25.80;52.40;;;;;;6220359;23;20000;-47
2020/12/20 04:55:41;;;;;;;7.10;3.05;;;25.90;52.30;;;;;;6247227;23;20000;-47
2020/12/20 04:58:08;;;;;;;5.18;2.67;;;25.90;52.10;;;;;;6221142;23;20004;-47
2020/12/20 05:00:35;;;;;;;4.28;2.47;;;26.00;52.10;;;;;;6246916;23;20429;-47
2020/12/20 05:03:02;;;;;;;6.53;2.90;;;26.10;51.90;;;;;;6246887;23;20004;-47
2020/12/20 05:05:29;;;;;;;5.30;2.65;;;26.20;51.80;;;;;;6246037;23;20010;-47
2020/12/20 05:07:56;;;;;;;4.55;2.70;;;26.20;51.70;;;;;;6246711;23;20016;-47
2020/12/20 05:10:38;;;;;;;7.32;2.50;;;26.30;51.60;;;;;;6246249;23;20020;-47
2020/12/20 05:13:05;;;;;;;;;;;26.40;51.50;;;;;;6247153;23;20497;-47
2020/12/20 05:15:31;;;;;;;4.10;2.05;;;26.40;51.70;;;;;;6246914;23;19907;-47
2020/12/20 05:18:12;;;;;;;4.65;2.50;;;26.50;51.40;;;;;;6246944;23;20375;-47
2020/12/20 05:20:40;;;;;;;4.15;2.45;;;26.60;51.20;;;;;;6247119;23;19996;-47
2020/12/20 05:23:07;;;;;;;4.10;2.20;;;26.60;51.10;;;;;;6246990;23;20430;-47
2020/12/20 05:25:35;;;;;;;4.97;2.50;;;26.60;50.90;;;;;;6247111;23;20008;-47
2020/12/20 05:28:15;;;;;;;4.85;2.35;;;26.70;51.00;;;;;;6220182;23;20008;-47
2020/12/20 05:30:46;;;;;;;3.55;2.03;;;26.70;50.90;;;;;;6247237;23;20035;-47
2020/12/20 05:33:33;;;;;;;3.40;2.08;;;26.70;50.80;;;;;;6246904;23;20001;-47
2020/12/20 05:36:08;;;;;;;4.97;2.33;;;26.70;50.80;;;;;;6247077;23;20472;-47
2020/12/20 05:38:36;;;;;;;4.90;2.20;;;26.80;50.70;;;;;;6246771;23;20000;-47
2020/12/20 05:41:04;;;;;;;6.18;1.77;;;26.80;50.70;;;;;;6246101;23;20184;-48
2020/12/20 05:43:31;;;;;;;11.40;2.47;;;26.80;50.70;;;;;;6245053;23;20335;-47
2020/12/20 05:45:58;;;;;;;6.40;2.08;;;26.80;50.70;;;;;;6246822;23;20473;-47
2020/12/20 05:48:27;;;;;;;8.95;1.90;;;26.80;50.70;;;;;;6246621;23;20078;-47
2020/12/20 05:50:55;;;;;;;4.93;2.10;;;26.70;50.70;;;;;;6246733;23;20075;-47
2020/12/20 05:53:23;;;;;;;6.40;1.95;;;26.70;50.70;;;;;;6246546;23;20005;-47
2020/12/20 05:55:50;;;;;;;9.05;1.80;;;26.70;50.70;;;;;;6246616;23;20007;-47
2020/12/20 05:58:17;;;;;;;6.38;2.20;;;26.70;50.70;;;;;;6246502;23;20152;-47
